Willcox, Arizona
Current Conditions -  °F | °C
As of 10:51 AM on Saturday 20 Dec 2014 (Local Time) from KSAD Reporting Station
Clear Clear  
Wind Chill:   Ceiling: Unl
Heat Index:   Visibility: 10mi
Dew Point:   Wind: 0mph
Humidity: 68%   Direction: NA
Pressure: 30.18"   Gusts: NA
Location:  32.25°N, 109.84°W
Report Text: KSAD 201751Z AUTO 00000KT 10SM CLR 07/01 A3018 RMK AO2 SLP218 T00670011 10067 20000 50007
Loading
Personal Weather Stations






























Interactive Weather Map New forecast layout! Learn more

10-Day Weather Forecast

Advertisements
Track Severe Weather on mobile